createdAt,value
2017-10-05T00:00:21.869Z,1001.2
2017-10-05T00:01:24.653Z,1001.2
2017-10-05T00:02:27.082Z,1001.3
2017-10-05T00:03:29.512Z,1001.2
2017-10-05T00:04:31.947Z,1001.2
2017-10-05T00:05:34.714Z,1001.2
2017-10-05T00:06:37.138Z,1001.2
2017-10-05T00:07:39.585Z,1001.2
2017-10-05T00:08:42.012Z,1001.3
2017-10-05T00:09:44.435Z,1001.2
2017-10-05T00:10:47.548Z,1001.2
2017-10-05T00:11:49.970Z,1001.2
2017-10-05T00:12:52.406Z,1001.1
2017-10-05T00:13:54.835Z,1001
2017-10-05T00:14:57.278Z,1001
2017-10-05T00:15:59.709Z,1001
2017-10-05T00:17:02.134Z,1001
2017-10-05T00:18:04.569Z,1001
2017-10-05T00:19:06.992Z,1000.9
2017-10-05T00:20:09.416Z,1001
2017-10-05T00:21:11.838Z,1001
2017-10-05T00:22:14.592Z,1000.9
2017-10-05T00:23:17.015Z,1000.8
2017-10-05T00:24:19.448Z,1000.7
2017-10-05T00:25:21.876Z,1000.7
2017-10-05T00:26:24.640Z,1000.8
2017-10-05T00:27:27.067Z,1000.8
2017-10-05T00:28:29.490Z,1000.7
2017-10-05T00:29:32.258Z,1000.7
2017-10-05T00:30:35.032Z,1000.7
2017-10-05T00:31:37.456Z,1000.7
2017-10-05T00:32:39.881Z,1000.7
2017-10-05T00:33:42.671Z,1000.8
2017-10-05T00:34:45.097Z,1000.8
2017-10-05T00:35:47.520Z,1000.9
2017-10-05T00:36:49.948Z,1000.8
2017-10-05T00:37:52.377Z,1000.8
2017-10-05T00:38:54.805Z,1000.8
2017-10-05T00:39:57.582Z,1000.7
2017-10-05T00:40:59.991Z,1000.8
2017-10-05T00:42:02.430Z,1000.7
2017-10-05T00:43:04.858Z,1000.7
2017-10-05T00:44:07.286Z,1000.7
2017-10-05T00:45:09.713Z,1000.6
2017-10-05T00:46:12.147Z,1000.8
2017-10-05T00:47:14.583Z,1000.7
2017-10-05T00:48:16.995Z,1000.6
2017-10-05T00:49:19.428Z,1000.5
2017-10-05T00:50:21.851Z,1000.6
2017-10-05T00:51:24.280Z,1000.6
2017-10-05T00:52:26.711Z,1000.6
2017-10-05T00:53:29.142Z,1000.5
2017-10-05T00:54:31.572Z,1000.5
2017-10-05T00:55:34.009Z,1000.5
2017-10-05T00:56:36.433Z,1000.5
2017-10-05T00:57:38.870Z,1000.5
2017-10-05T00:58:41.299Z,1000.5
2017-10-05T00:59:43.728Z,1000.5
2017-10-05T01:00:46.158Z,1000.5
2017-10-05T01:01:48.588Z,1000.5
2017-10-05T01:02:51.011Z,1000.5
2017-10-05T01:03:53.438Z,1000.5
2017-10-05T01:04:55.858Z,1000.4
2017-10-05T01:05:58.288Z,1000.4
2017-10-05T01:07:00.716Z,1000.4
2017-10-05T01:08:03.149Z,1000.4
2017-10-05T01:09:05.573Z,1000.4
2017-10-05T01:10:08.000Z,1000.4
2017-10-05T01:11:10.448Z,1000.4
2017-10-05T01:12:12.896Z,1000.4
2017-10-05T01:13:15.330Z,1000.3
2017-10-05T01:14:17.762Z,1000.3
2017-10-05T01:15:20.198Z,1000.3
2017-10-05T01:16:22.950Z,1000.2
2017-10-05T01:17:25.727Z,1000.1
2017-10-05T01:18:28.152Z,1000.1
2017-10-05T01:19:30.584Z,1000.1
2017-10-05T01:20:33.344Z,1000.1
2017-10-05T01:21:35.777Z,1000.2
2017-10-05T01:22:38.543Z,1000.2
2017-10-05T01:23:40.981Z,1000.2
2017-10-05T01:24:43.405Z,1000.2
2017-10-05T01:25:45.829Z,1000.2
2017-10-05T01:26:48.259Z,1000.3
2017-10-05T01:27:50.692Z,1000.2
2017-10-05T01:28:53.119Z,1000.2
2017-10-05T01:29:55.559Z,1000.2
2017-10-05T01:30:57.980Z,1000.1
2017-10-05T01:32:00.407Z,1000.2
2017-10-05T01:33:02.834Z,1000.2
2017-10-05T01:34:05.262Z,1000.2
2017-10-05T01:35:07.684Z,1000.1
2017-10-05T01:36:10.116Z,1000
2017-10-05T01:37:12.885Z,1000.1
2017-10-05T01:38:15.327Z,1000
2017-10-05T01:39:17.756Z,1000
2017-10-05T01:40:20.182Z,1000
2017-10-05T01:41:22.947Z,1000
2017-10-05T01:42:25.367Z,999.9
2017-10-05T01:43:27.792Z,999.8
2017-10-05T01:44:30.221Z,999.8
2017-10-05T01:45:32.645Z,999.9
2017-10-05T01:46:35.078Z,999.8
2017-10-05T01:47:37.488Z,999.9
2017-10-05T01:48:39.931Z,999.9
2017-10-05T01:49:42.359Z,999.9
2017-10-05T01:50:44.790Z,1000
2017-10-05T01:51:47.217Z,1000
2017-10-05T01:52:49.639Z,999.9
2017-10-05T01:53:52.064Z,1000
2017-10-05T01:54:54.495Z,999.9
2017-10-05T01:55:56.925Z,999.8
2017-10-05T01:56:59.353Z,999.9
2017-10-05T01:58:01.783Z,999.9
2017-10-05T01:59:04.202Z,999.8
2017-10-05T02:00:06.627Z,999.7
2017-10-05T02:01:09.057Z,999.8
2017-10-05T02:02:11.476Z,999.8
2017-10-05T02:03:13.909Z,999.8
2017-10-05T02:04:16.332Z,999.6
2017-10-05T02:05:19.104Z,999.7
2017-10-05T02:06:21.537Z,999.7
2017-10-05T02:07:23.966Z,999.7
2017-10-05T02:08:26.395Z,999.7
2017-10-05T02:09:28.829Z,999.7
2017-10-05T02:10:31.251Z,999.7
2017-10-05T02:11:33.670Z,999.7
2017-10-05T02:12:36.090Z,999.7
2017-10-05T02:13:38.534Z,999.7
2017-10-05T02:14:40.961Z,999.6
2017-10-05T02:15:43.396Z,999.5
2017-10-05T02:16:45.827Z,999.5
2017-10-05T02:17:48.262Z,999.5
2017-10-05T02:18:51.038Z,999.5
2017-10-05T02:19:53.466Z,999.5
2017-10-05T02:20:55.881Z,999.5
2017-10-05T02:21:58.300Z,999.5
2017-10-05T02:23:00.726Z,999.5
2017-10-05T02:24:03.158Z,999.5
2017-10-05T02:25:05.588Z,999.4
2017-10-05T02:26:08.350Z,999.3
2017-10-05T02:27:10.777Z,999.3
2017-10-05T02:28:13.575Z,999.3
2017-10-05T02:29:15.998Z,999.2
2017-10-05T02:30:18.424Z,999.1
2017-10-05T02:31:20.857Z,999.1
2017-10-05T02:32:23.628Z,999.1
2017-10-05T02:33:26.061Z,999
2017-10-05T02:34:28.493Z,999
2017-10-05T02:35:30.905Z,998.9
2017-10-05T02:36:34.016Z,998.9
2017-10-05T02:37:36.453Z,998.9
2017-10-05T02:38:38.876Z,998.9
2017-10-05T02:39:41.304Z,998.9
2017-10-05T02:40:43.730Z,998.9
2017-10-05T02:41:46.535Z,998.9
2017-10-05T02:42:48.963Z,998.9
2017-10-05T02:43:51.393Z,998.8
2017-10-05T02:44:53.827Z,998.8
2017-10-05T02:45:56.277Z,998.7
2017-10-05T02:46:58.685Z,998.7
2017-10-05T02:48:01.119Z,998.8
2017-10-05T02:49:03.544Z,998.7
2017-10-05T02:50:05.977Z,998.8
2017-10-05T02:51:08.398Z,998.7
2017-10-05T02:52:10.826Z,998.7
2017-10-05T02:53:13.247Z,998.7
2017-10-05T02:54:15.684Z,998.6
2017-10-05T02:55:18.110Z,998.7
2017-10-05T02:56:20.883Z,998.7
2017-10-05T02:57:23.308Z,998.6
2017-10-05T02:58:25.731Z,998.7
2017-10-05T02:59:28.159Z,998.6
2017-10-05T03:00:30.587Z,998.6
2017-10-05T03:01:33.009Z,998.5
2017-10-05T03:02:35.819Z,998.4
2017-10-05T03:03:38.247Z,998.4
2017-10-05T03:04:40.679Z,998.4
2017-10-05T03:05:43.102Z,998.3
2017-10-05T03:06:45.877Z,998.3
2017-10-05T03:07:48.299Z,998.3
2017-10-05T03:08:50.744Z,998.3
2017-10-05T03:09:53.512Z,998.2
2017-10-05T03:10:55.935Z,998.3
2017-10-05T03:11:58.366Z,998.2
2017-10-05T03:13:00.791Z,998.2
2017-10-05T03:14:03.217Z,998.2
2017-10-05T03:15:05.647Z,998.1
2017-10-05T03:16:08.073Z,998.1
2017-10-05T03:17:10.503Z,998
2017-10-05T03:18:12.925Z,998
2017-10-05T03:19:15.345Z,998
2017-10-05T03:20:17.789Z,997.9
2017-10-05T03:21:20.216Z,997.9
2017-10-05T03:22:22.983Z,997.9
2017-10-05T03:23:25.411Z,997.9
2017-10-05T03:24:27.839Z,997.9
2017-10-05T03:25:30.270Z,997.8
2017-10-05T03:26:32.705Z,997.8
2017-10-05T03:27:35.122Z,997.8
2017-10-05T03:28:37.893Z,997.8
2017-10-05T03:29:40.316Z,997.7
2017-10-05T03:30:42.744Z,997.8
2017-10-05T03:31:45.181Z,997.7
2017-10-05T03:32:47.604Z,997.5
2017-10-05T03:33:50.030Z,997.6
2017-10-05T03:34:52.466Z,997.6
2017-10-05T03:35:54.886Z,997.5
2017-10-05T03:36:57.307Z,997.5
2017-10-05T03:37:59.736Z,997.4
2017-10-05T03:39:02.166Z,997.4
2017-10-05T03:40:04.589Z,997.4
2017-10-05T03:41:07.022Z,997.4
2017-10-05T03:42:09.451Z,997.3
2017-10-05T03:43:11.901Z,997.4
2017-10-05T03:44:14.636Z,997.3
2017-10-05T03:45:17.061Z,997.3
2017-10-05T03:46:19.843Z,997.2
2017-10-05T03:47:22.271Z,997.3
2017-10-05T03:48:24.695Z,997.3
2017-10-05T03:49:27.123Z,997.3
2017-10-05T03:50:29.551Z,997.3
2017-10-05T03:51:31.988Z,997.3
2017-10-05T03:52:34.423Z,997.3
2017-10-05T03:53:37.178Z,997.3
2017-10-05T03:54:39.615Z,997.2
2017-10-05T03:55:42.394Z,997.2
2017-10-05T03:56:44.823Z,997.2
2017-10-05T03:57:47.265Z,997.2
2017-10-05T03:58:49.681Z,997.1
2017-10-05T03:59:52.444Z,997
2017-10-05T04:00:54.884Z,997
2017-10-05T04:01:57.302Z,997
2017-10-05T04:02:59.732Z,996.9
2017-10-05T04:04:02.163Z,996.9
2017-10-05T04:05:04.583Z,996.9
2017-10-05T04:06:07.022Z,996.8
2017-10-05T04:07:09.451Z,996.8
2017-10-05T04:08:11.868Z,996.8
2017-10-05T04:09:14.296Z,996.8
2017-10-05T04:10:16.733Z,996.7
2017-10-05T04:11:19.156Z,996.7
2017-10-05T04:12:21.580Z,996.7
2017-10-05T04:13:24.007Z,996.7
2017-10-05T04:14:26.428Z,996.7
2017-10-05T04:15:28.851Z,996.7
2017-10-05T04:16:31.285Z,996.7
2017-10-05T04:17:33.698Z,996.6
2017-10-05T04:18:36.125Z,996.7
2017-10-05T04:19:38.562Z,996.6
2017-10-05T04:20:41.332Z,996.6
2017-10-05T04:21:43.765Z,996.7
2017-10-05T04:22:46.188Z,996.7
2017-10-05T04:23:48.617Z,996.6
2017-10-05T04:24:51.061Z,996.5
2017-10-05T04:25:53.492Z,996.5
2017-10-05T04:26:55.920Z,996.5
2017-10-05T04:27:58.349Z,996.3
2017-10-05T04:29:00.774Z,996.4
2017-10-05T04:30:03.571Z,996.4
2017-10-05T04:31:06.004Z,996.4
2017-10-05T04:32:08.418Z,996.4
2017-10-05T04:33:10.841Z,996.3
2017-10-05T04:34:13.271Z,996.3
2017-10-05T04:35:15.701Z,996.3
2017-10-05T04:36:18.129Z,996.3
2017-10-05T04:37:20.564Z,996.3
2017-10-05T04:38:22.999Z,996.3
2017-10-05T04:39:25.423Z,996.3
2017-10-05T04:40:27.846Z,996.2
2017-10-05T04:41:30.278Z,996.3
2017-10-05T04:42:32.706Z,996.3
2017-10-05T04:43:35.462Z,996.2
2017-10-05T04:44:37.893Z,996.2
2017-10-05T04:45:40.328Z,996.3
2017-10-05T04:46:42.754Z,996.2
2017-10-05T04:47:45.531Z,996.2
2017-10-05T04:48:47.960Z,996.2
2017-10-05T04:49:50.382Z,996.1
2017-10-05T04:50:52.826Z,996
2017-10-05T04:51:55.245Z,996.1
2017-10-05T04:52:57.671Z,996.1
2017-10-05T04:54:00.098Z,996
2017-10-05T04:55:02.527Z,996
2017-10-05T04:56:04.963Z,996
2017-10-05T04:57:07.399Z,996
2017-10-05T04:58:09.814Z,996
2017-10-05T04:59:12.240Z,995.9
2017-10-05T05:00:14.672Z,996
2017-10-05T05:01:17.102Z,996
2017-10-05T05:02:19.529Z,996
2017-10-05T05:03:21.961Z,995.9
2017-10-05T05:04:24.394Z,995.8
2017-10-05T05:05:26.829Z,995.9
2017-10-05T05:06:29.254Z,995.8
2017-10-05T05:07:31.688Z,995.8
2017-10-05T05:08:34.203Z,995.8
2017-10-05T05:09:36.630Z,995.8
2017-10-05T05:10:39.065Z,995.8
2017-10-05T05:11:41.491Z,995.8
2017-10-05T05:12:43.922Z,995.7
2017-10-05T05:13:46.374Z,995.7
2017-10-05T05:14:49.144Z,995.6
2017-10-05T05:15:51.586Z,995.6
2017-10-05T05:16:54.012Z,995.6
2017-10-05T05:17:56.445Z,995.6
2017-10-05T05:18:59.210Z,995.5
2017-10-05T05:20:01.641Z,995.5
2017-10-05T05:21:04.059Z,995.5
2017-10-05T05:22:06.829Z,995.5
2017-10-05T05:23:09.241Z,995.4
2017-10-05T05:24:11.691Z,995.4
2017-10-05T05:25:14.119Z,995.3
2017-10-05T05:26:16.538Z,995.3
2017-10-05T05:27:18.987Z,995.4
2017-10-05T05:28:21.402Z,995.2
2017-10-05T05:29:23.834Z,995.3
2017-10-05T05:30:26.271Z,995.2
2017-10-05T05:31:28.697Z,995.2
2017-10-05T05:32:31.126Z,995.2
2017-10-05T05:33:33.573Z,995.1
2017-10-05T05:34:36.003Z,995.1
2017-10-05T05:35:38.424Z,995
2017-10-05T05:36:40.860Z,995.1
2017-10-05T05:37:43.293Z,995
2017-10-05T05:38:45.713Z,995
2017-10-05T05:39:48.480Z,995
2017-10-05T05:40:50.913Z,994.9
2017-10-05T05:41:53.341Z,994.9
2017-10-05T05:42:55.768Z,994.9
2017-10-05T05:43:58.201Z,994.9
2017-10-05T05:45:00.630Z,994.9
2017-10-05T05:46:03.064Z,994.8
2017-10-05T05:47:05.497Z,994.8
2017-10-05T05:48:07.908Z,994.8
2017-10-05T05:49:10.337Z,994.8
2017-10-05T05:50:12.762Z,994.8
2017-10-05T05:51:15.192Z,994.8
2017-10-05T05:52:17.624Z,994.7
2017-10-05T05:53:20.055Z,994.7
2017-10-05T05:54:22.482Z,994.7
2017-10-05T05:55:24.909Z,994.7
2017-10-05T05:56:27.343Z,994.8
2017-10-05T05:57:30.091Z,994.7
2017-10-05T05:58:32.525Z,994.6
2017-10-05T05:59:34.954Z,994.6
2017-10-05T06:00:37.383Z,994.5
2017-10-05T06:01:39.810Z,994.5
2017-10-05T06:02:42.231Z,994.5
2017-10-05T06:03:44.655Z,994.5
2017-10-05T06:04:47.088Z,994.5
2017-10-05T06:05:49.509Z,994.5
2017-10-05T06:06:51.938Z,994.4
2017-10-05T06:07:54.363Z,994.4
2017-10-05T06:08:56.798Z,994.3
2017-10-05T06:09:59.228Z,994.4
2017-10-05T06:11:01.657Z,994.3
2017-10-05T06:12:04.094Z,994.3
2017-10-05T06:13:06.528Z,994.2
2017-10-05T06:14:08.947Z,994.2
2017-10-05T06:15:11.373Z,994.3
2017-10-05T06:16:13.802Z,994.2
2017-10-05T06:17:16.225Z,994.3
2017-10-05T06:18:18.654Z,994.2
2017-10-05T06:19:21.075Z,994.2
2017-10-05T06:20:23.498Z,994.2
2017-10-05T06:21:25.940Z,994.1
2017-10-05T06:22:28.355Z,994.1
2017-10-05T06:23:30.782Z,994
2017-10-05T06:24:33.217Z,994
2017-10-05T06:25:35.981Z,994
2017-10-05T06:26:38.413Z,994
2017-10-05T06:27:40.840Z,994
2017-10-05T06:28:43.271Z,993.9
2017-10-05T06:29:45.699Z,993.9
2017-10-05T06:30:48.130Z,993.8
2017-10-05T06:31:50.549Z,993.8
2017-10-05T06:32:52.984Z,993.8
2017-10-05T06:33:55.416Z,993.8
2017-10-05T06:34:57.841Z,993.7
2017-10-05T06:36:00.272Z,993.6
2017-10-05T06:37:02.727Z,993.5
2017-10-05T06:38:05.142Z,993.5
2017-10-05T06:39:07.581Z,993.5
2017-10-05T06:40:10.009Z,993.5
2017-10-05T06:41:12.780Z,993.4
2017-10-05T06:42:15.208Z,993.4
2017-10-05T06:43:17.978Z,993.3
2017-10-05T06:44:20.395Z,993.4
2017-10-05T06:45:23.201Z,993.3
2017-10-05T06:46:25.624Z,993.2
2017-10-05T06:47:28.050Z,993.2
2017-10-05T06:48:30.481Z,993.2
2017-10-05T06:49:32.904Z,993.1
2017-10-05T06:50:35.331Z,993.1
2017-10-05T06:51:38.101Z,993
2017-10-05T06:52:41.159Z,993
2017-10-05T06:53:43.589Z,993
2017-10-05T06:54:46.026Z,993
2017-10-05T06:55:48.465Z,993
2017-10-05T06:56:50.877Z,992.9
2017-10-05T06:57:53.303Z,992.9
2017-10-05T06:58:55.728Z,992.9
2017-10-05T06:59:58.171Z,992.9
2017-10-05T07:01:00.593Z,992.9
2017-10-05T07:02:03.358Z,992.8
2017-10-05T07:03:05.779Z,992.7
2017-10-05T07:04:08.220Z,992.7
2017-10-05T07:05:10.652Z,992.7
2017-10-05T07:06:13.076Z,992.6
2017-10-05T07:07:15.842Z,992.6
2017-10-05T07:08:18.270Z,992.5
2017-10-05T07:09:20.704Z,992.5
2017-10-05T07:10:23.127Z,992.5
2017-10-05T07:11:25.538Z,992.4
2017-10-05T07:12:27.963Z,992.3
2017-10-05T07:13:30.740Z,992.3
2017-10-05T07:14:33.168Z,992.3
2017-10-05T07:15:35.596Z,992.3
2017-10-05T07:16:38.021Z,992.3
2017-10-05T07:17:40.455Z,992.3
2017-10-05T07:18:43.262Z,992.2
2017-10-05T07:19:45.685Z,992.2
2017-10-05T07:20:48.118Z,992.2
2017-10-05T07:21:50.894Z,992.2
2017-10-05T07:22:53.319Z,992.2
2017-10-05T07:23:55.748Z,992.2
2017-10-05T07:24:58.173Z,992.1
2017-10-05T07:26:00.934Z,992.1
2017-10-05T07:27:03.365Z,992.1
2017-10-05T07:28:05.787Z,992
2017-10-05T07:29:08.204Z,992
2017-10-05T07:30:10.649Z,992.1
2017-10-05T07:31:13.078Z,991.9
2017-10-05T07:32:15.505Z,992
2017-10-05T07:33:17.932Z,992
2017-10-05T07:34:20.360Z,991.9
2017-10-05T07:35:22.792Z,991.9
2017-10-05T07:36:25.565Z,991.8
2017-10-05T07:37:28.688Z,991.8
2017-10-05T07:38:31.113Z,991.9
2017-10-05T07:39:33.546Z,991.9
2017-10-05T07:40:35.974Z,991.9
2017-10-05T07:41:38.403Z,991.9
2017-10-05T07:42:40.827Z,991.7
2017-10-05T07:43:43.608Z,991.8
2017-10-05T07:44:46.024Z,991.7
2017-10-05T07:45:48.458Z,991.7
2017-10-05T07:46:50.891Z,991.7
2017-10-05T07:47:53.319Z,991.6
2017-10-05T07:48:55.744Z,991.6
2017-10-05T07:49:58.512Z,991.5
2017-10-05T07:51:00.934Z,991.6
2017-10-05T07:52:03.706Z,991.5
2017-10-05T07:53:06.133Z,991.5
2017-10-05T07:54:08.554Z,991.4
2017-10-05T07:55:10.981Z,991.3
2017-10-05T07:56:13.408Z,991.2
2017-10-05T07:57:15.843Z,991.2
2017-10-05T07:58:18.271Z,991.2
2017-10-05T07:59:20.695Z,991.1
2017-10-05T08:00:23.125Z,991.1
2017-10-05T08:01:25.557Z,991.1
2017-10-05T08:02:27.988Z,991
2017-10-05T08:03:30.417Z,991
2017-10-05T08:04:32.835Z,990.9
2017-10-05T08:05:35.257Z,991
2017-10-05T08:06:37.679Z,990.9
2017-10-05T08:07:40.100Z,990.8
2017-10-05T08:08:42.526Z,990.8
2017-10-05T08:09:44.959Z,990.8
2017-10-05T08:10:47.375Z,990.7
2017-10-05T08:11:49.810Z,990.7
2017-10-05T08:12:52.231Z,990.7
2017-10-05T08:13:54.666Z,990.7
2017-10-05T08:14:57.448Z,990.6
2017-10-05T08:15:59.871Z,990.5
2017-10-05T08:17:02.293Z,990.5
2017-10-05T08:18:04.733Z,990.5
2017-10-05T08:19:07.162Z,990.4
2017-10-05T08:20:09.584Z,990.3
2017-10-05T08:21:12.357Z,990.3
2017-10-05T08:22:14.783Z,990.2
2017-10-05T08:23:17.207Z,990.2
2017-10-05T08:24:19.630Z,990.2
2017-10-05T08:25:22.053Z,990.1
2017-10-05T08:26:24.483Z,990
2017-10-05T08:27:26.922Z,990
2017-10-05T08:28:29.340Z,990
2017-10-05T08:29:31.779Z,990
2017-10-05T08:30:34.202Z,989.9
2017-10-05T08:31:36.636Z,989.8
2017-10-05T08:32:39.068Z,989.9
2017-10-05T08:33:41.843Z,989.7
2017-10-05T08:34:44.262Z,989.8
2017-10-05T08:35:46.694Z,989.7
2017-10-05T08:36:49.134Z,989.7
2017-10-05T08:37:51.552Z,989.6
2017-10-05T08:38:54.355Z,989.6
2017-10-05T08:39:56.790Z,989.6
2017-10-05T08:40:59.224Z,989.5
2017-10-05T08:42:01.636Z,989.4
2017-10-05T08:43:04.074Z,989.4
2017-10-05T08:44:06.508Z,989.3
2017-10-05T08:45:08.928Z,989.3
2017-10-05T08:46:11.358Z,989.2
2017-10-05T08:47:13.783Z,989.2
2017-10-05T08:48:16.206Z,989.1
2017-10-05T08:49:18.642Z,989
2017-10-05T08:50:21.062Z,989
2017-10-05T08:51:23.488Z,989
2017-10-05T08:52:25.920Z,988.8
2017-10-05T08:53:28.339Z,988.8
2017-10-05T08:54:30.774Z,988.8
2017-10-05T08:55:33.205Z,988.8
2017-10-05T08:56:35.630Z,988.7
2017-10-05T08:57:38.747Z,988.7
2017-10-05T08:58:41.516Z,988.6
2017-10-05T08:59:44.285Z,988.5
2017-10-05T09:00:46.723Z,988.5
2017-10-05T09:01:49.152Z,988.4
2017-10-05T09:02:51.911Z,988.4
2017-10-05T09:03:54.342Z,988.4
2017-10-05T09:04:56.767Z,988.3
2017-10-05T09:05:59.200Z,988.3
2017-10-05T09:07:01.972Z,988.3
2017-10-05T09:08:04.401Z,988.2
2017-10-05T09:09:06.828Z,988.2
2017-10-05T09:10:09.267Z,988.1
2017-10-05T09:11:11.697Z,988
2017-10-05T09:12:14.192Z,987.9
2017-10-05T09:13:16.620Z,987.8
2017-10-05T09:14:19.045Z,987.8
2017-10-05T09:15:21.472Z,987.8
2017-10-05T09:16:23.905Z,987.8
2017-10-05T09:17:26.319Z,987.7
2017-10-05T09:18:28.751Z,987.6
2017-10-05T09:19:31.180Z,987.6
2017-10-05T09:20:33.612Z,987.5
2017-10-05T09:21:36.041Z,987.4
2017-10-05T09:22:38.464Z,987.3
2017-10-05T09:23:40.889Z,987.3
2017-10-05T09:24:43.331Z,987.3
2017-10-05T09:25:45.758Z,987.3
2017-10-05T09:26:48.187Z,987.3
2017-10-05T09:27:50.615Z,987.2
2017-10-05T09:28:53.043Z,987.2
2017-10-05T09:29:55.471Z,987
2017-10-05T09:30:57.899Z,987
2017-10-05T09:32:00.318Z,986.9
2017-10-05T09:33:02.751Z,986.9
2017-10-05T09:34:05.178Z,986.8
2017-10-05T09:35:07.619Z,986.7
2017-10-05T09:36:10.038Z,986.7
2017-10-05T09:37:12.469Z,986.7
2017-10-05T09:38:14.894Z,986.6
2017-10-05T09:39:17.318Z,986.5
2017-10-05T09:41:52.230Z,986.4
2017-10-05T09:42:55.020Z,986.3
2017-10-05T09:43:57.442Z,986.3
2017-10-05T09:44:59.880Z,986.2
2017-10-05T09:46:02.308Z,986.1
2017-10-05T09:47:04.738Z,986.1
2017-10-05T09:48:07.169Z,986.1
2017-10-05T09:49:09.596Z,986
2017-10-05T09:50:12.018Z,986
2017-10-05T09:51:14.450Z,985.8
2017-10-05T09:52:16.870Z,985.8
2017-10-05T09:53:19.304Z,985.8
2017-10-05T09:54:21.721Z,985.7
2017-10-05T09:55:24.155Z,985.7
2017-10-05T09:56:26.587Z,985.7
2017-10-05T09:57:29.021Z,985.7
2017-10-05T09:58:31.448Z,985.6
2017-10-05T09:59:33.878Z,985.5
2017-10-05T10:00:36.312Z,985.4
2017-10-05T10:01:39.093Z,985.4
2017-10-05T10:02:41.867Z,985.3
2017-10-05T10:03:44.297Z,985.3
2017-10-05T10:04:46.724Z,985.2
2017-10-05T10:05:49.144Z,985.2
2017-10-05T10:06:51.917Z,985.2
2017-10-05T10:07:54.364Z,985.1
2017-10-05T10:08:56.787Z,985
2017-10-05T10:09:59.208Z,985.1
2017-10-05T10:11:01.646Z,985
2017-10-05T10:12:04.067Z,984.9
2017-10-05T10:13:06.505Z,984.8
2017-10-05T10:14:08.940Z,984.8
2017-10-05T10:15:11.358Z,984.8
2017-10-05T10:16:13.791Z,984.7
2017-10-05T10:17:16.213Z,984.7
2017-10-05T10:18:18.646Z,984.7
2017-10-05T10:19:21.072Z,984.7
2017-10-05T10:20:23.502Z,984.7
2017-10-05T10:21:26.281Z,984.6
2017-10-05T10:22:28.713Z,984.6
2017-10-05T10:23:31.136Z,984.5
2017-10-05T10:24:33.561Z,984.5
2017-10-05T10:25:35.987Z,984.4
2017-10-05T10:26:38.429Z,984.3
2017-10-05T10:27:40.859Z,984.3
2017-10-05T10:28:43.300Z,984.2
2017-10-05T10:29:45.720Z,984.2
2017-10-05T10:30:48.499Z,984.2
2017-10-05T10:31:50.924Z,984
2017-10-05T10:32:53.354Z,984.1
2017-10-05T10:33:55.775Z,984.1
2017-10-05T10:34:58.198Z,984
2017-10-05T10:36:00.633Z,984
2017-10-05T10:37:03.396Z,983.9
2017-10-05T10:38:05.832Z,983.8
2017-10-05T10:39:08.609Z,983.7
2017-10-05T10:40:11.040Z,983.8
2017-10-05T10:41:13.468Z,983.8
2017-10-05T10:42:15.910Z,983.7
2017-10-05T10:43:18.340Z,983.7
2017-10-05T10:44:21.450Z,983.6
2017-10-05T10:45:23.881Z,983.6
2017-10-05T10:46:26.312Z,983.6
2017-10-05T10:47:28.749Z,983.5
2017-10-05T10:48:31.178Z,983.6
2017-10-05T10:49:33.602Z,983.5
2017-10-05T10:50:36.386Z,983.4
2017-10-05T10:51:38.816Z,983.6
2017-10-05T10:52:41.240Z,983.4
2017-10-05T10:53:43.671Z,983.1
2017-10-05T10:54:46.104Z,983.1
2017-10-05T10:55:48.529Z,983.1
2017-10-05T10:56:50.967Z,983.2
2017-10-05T10:57:53.400Z,983.1
2017-10-05T10:58:55.828Z,983
2017-10-05T10:59:58.272Z,983
2017-10-05T11:01:00.699Z,983
2017-10-05T11:02:03.803Z,982.9
2017-10-05T11:03:06.600Z,982.9
2017-10-05T11:04:09.025Z,982.8
2017-10-05T11:05:11.463Z,982.8
2017-10-05T11:06:14.227Z,982.8
2017-10-05T11:07:17.008Z,982.7
2017-10-05T11:08:19.777Z,982.8
2017-10-05T11:09:22.213Z,982.7
2017-10-05T11:10:24.644Z,982.7
2017-10-05T11:11:27.078Z,982.7
2017-10-05T11:12:29.500Z,982.6
2017-10-05T11:13:31.932Z,982.4
2017-10-05T11:14:34.363Z,982.7
2017-10-05T11:15:36.798Z,982.6
2017-10-05T11:16:39.220Z,982.6
2017-10-05T11:17:41.658Z,982.5
2017-10-05T11:18:44.086Z,982.7
2017-10-05T11:19:46.522Z,982.5
2017-10-05T11:20:48.943Z,982.5
2017-10-05T11:21:51.377Z,982.5
2017-10-05T11:22:53.808Z,982.5
2017-10-05T11:23:56.249Z,982.2
2017-10-05T11:24:59.039Z,982.3
2017-10-05T11:26:01.792Z,982.2
2017-10-05T11:27:04.232Z,982.2
2017-10-05T11:28:06.661Z,982.2
2017-10-05T11:29:09.441Z,982.2
2017-10-05T11:30:11.862Z,982.2
2017-10-05T11:31:14.625Z,982.2
2017-10-05T11:32:17.397Z,982
2017-10-05T11:33:20.200Z,981.9
2017-10-05T11:34:22.633Z,981.9
2017-10-05T11:35:25.064Z,981.8
2017-10-05T11:36:27.837Z,981.9
2017-10-05T11:37:30.278Z,981.9
2017-10-05T11:38:32.702Z,981.8
2017-10-05T11:39:35.480Z,981.7
2017-10-05T11:40:37.923Z,981.7
2017-10-05T11:41:40.342Z,981.6
2017-10-05T11:42:42.773Z,981.5
2017-10-05T11:43:45.198Z,981.4
2017-10-05T11:44:47.638Z,981.4
2017-10-05T11:45:50.079Z,981.3
2017-10-05T11:46:52.514Z,981.3
2017-10-05T11:47:54.930Z,981.2
2017-10-05T11:48:57.374Z,981.2
2017-10-05T11:49:59.800Z,981.2
2017-10-05T11:51:02.576Z,981.2
2017-10-05T11:52:05.018Z,981
2017-10-05T11:53:07.443Z,981.1
2017-10-05T11:54:09.878Z,981
2017-10-05T11:55:12.312Z,981
2017-10-05T11:56:14.743Z,980.9
2017-10-05T11:57:17.168Z,980.8
2017-10-05T11:58:19.609Z,980.8
2017-10-05T11:59:22.371Z,980.7
2017-10-05T12:00:24.808Z,980.7
2017-10-05T12:01:27.245Z,980.7
2017-10-05T12:02:29.669Z,980.7
2017-10-05T12:03:32.101Z,980.7
2017-10-05T12:04:34.544Z,980.6
2017-10-05T12:05:36.982Z,980.6
2017-10-05T12:06:39.409Z,980.6
2017-10-05T12:07:41.839Z,980.5
2017-10-05T12:08:44.271Z,980.6
2017-10-05T12:09:47.047Z,980.5
2017-10-05T12:10:49.482Z,980.4
2017-10-05T12:11:52.247Z,980.4
2017-10-05T12:12:54.675Z,980.3
2017-10-05T12:13:57.129Z,980.4
2017-10-05T12:14:59.568Z,980.3
2017-10-05T12:16:02.005Z,980.5
2017-10-05T12:17:04.438Z,980.6
2017-10-05T12:18:06.867Z,980.6
2017-10-05T12:19:09.638Z,980.5
2017-10-05T12:20:12.075Z,980.6
2017-10-05T12:21:14.507Z,980.5
2017-10-05T12:22:16.933Z,980.6
2017-10-05T12:23:19.373Z,980.5
2017-10-05T12:24:21.798Z,980.5
2017-10-05T12:25:24.230Z,980.6
2017-10-05T12:26:26.663Z,980.6
2017-10-05T12:27:29.098Z,980.6
2017-10-05T12:28:31.538Z,980.5
2017-10-05T12:29:33.974Z,980.6
2017-10-05T12:30:36.408Z,980.5
2017-10-05T12:31:39.194Z,980.5
2017-10-05T12:32:41.623Z,980.6
2017-10-05T12:33:44.058Z,980.6
2017-10-05T12:34:46.491Z,980.6
2017-10-05T12:35:48.921Z,980.9
2017-10-05T12:36:51.346Z,981.3
2017-10-05T12:37:53.780Z,981.5
2017-10-05T12:38:56.211Z,981.5
2017-10-05T12:39:58.647Z,981.8
2017-10-05T12:41:01.077Z,982
2017-10-05T12:42:03.847Z,982.2
2017-10-05T12:43:06.281Z,982.3
2017-10-05T12:44:08.718Z,982.5
2017-10-05T12:45:11.151Z,982.5
2017-10-05T12:46:13.585Z,982.9
2017-10-05T12:47:16.006Z,982.8
2017-10-05T12:48:18.452Z,983.4
2017-10-05T12:49:20.865Z,983.2
2017-10-05T12:50:23.298Z,983.5
2017-10-05T12:51:25.727Z,983.8
2017-10-05T12:52:28.155Z,983.9
2017-10-05T12:53:30.601Z,984.2
2017-10-05T12:54:33.011Z,984.3
2017-10-05T12:55:35.437Z,984.6
2017-10-05T12:56:37.883Z,984.7
2017-10-05T12:57:40.318Z,984.9
2017-10-05T12:58:42.744Z,985.1
2017-10-05T12:59:45.513Z,985.5
2017-10-05T13:00:47.947Z,985.3
2017-10-05T13:01:50.370Z,985.7
2017-10-05T13:02:52.796Z,985.7
2017-10-05T13:03:55.228Z,985.6
2017-10-05T13:04:57.660Z,986
2017-10-05T13:06:00.079Z,986.2
2017-10-05T13:07:02.513Z,986.3
2017-10-05T13:08:04.961Z,986.4
2017-10-05T13:09:07.391Z,986.8
2017-10-05T13:10:09.826Z,986.6
2017-10-05T13:11:12.252Z,986.9
2017-10-05T13:12:14.717Z,987.2
2017-10-05T13:13:17.163Z,987.1
2017-10-05T13:14:19.594Z,987.3
2017-10-05T13:15:22.010Z,987.6
2017-10-05T13:16:24.448Z,987.5
2017-10-05T13:17:26.869Z,987.8
2017-10-05T13:18:29.302Z,987.9
2017-10-05T13:19:31.732Z,987.9
2017-10-05T13:20:34.145Z,988.1
2017-10-05T13:21:36.581Z,988.3
2017-10-05T13:22:39.010Z,988.3
2017-10-05T13:23:41.438Z,988.5
2017-10-05T13:24:43.879Z,988.6
2017-10-05T13:25:46.307Z,988.7
2017-10-05T13:26:48.733Z,988.8
2017-10-05T13:27:51.171Z,988.9